Time;durP1;ratioP1;P1;durP2;ratioP2;P2;SDS_P1;SDS_P2;PMS_P1;PMS_P2;Temp;Humidity;BMP_temperature;BMP_pressure;BME280_temperature;BME280_humidity;BME280_pressure;Samples;Min_cycle;Max_cycle;Signal;HPM_P1;HPM_P2
2022/11/29 00:01:25;;;;;;;27.93;20.10;;;;;;;0.73;100.00;96051.44;5050350;28;20532;-74
2022/11/29 00:03:53;;;;;;;27.60;20.90;;;;;;;1.00;100.00;96090.03;5015669;28;20613;-74
2022/11/29 00:06:28;;;;;;;28.47;19.70;;;;;;;0.91;100.00;96081.25;5029147;28;20879;-74
2022/11/29 00:08:58;;;;;;;32.00;20.17;;;;;;;0.82;100.00;96082.88;5030266;28;20536;-74
2022/11/29 00:14:15;;;;;;;32.90;21.70;;;;;;;0.99;100.00;96100.72;5030401;28;20517;-73
2022/11/29 00:16:42;;;;;;;29.60;20.67;;;;;;;1.02;100.00;96089.75;5028851;28;20563;-74
2022/11/29 00:19:11;;;;;;;37.40;23.10;;;;;;;0.83;100.00;96061.00;5038128;28;20472;-73
2022/11/29 00:21:38;;;;;;;32.30;22.07;;;;;;;1.07;100.00;96092.31;5032057;28;20480;-73
2022/11/29 00:24:05;;;;;;;33.40;23.60;;;;;;;0.94;100.00;96072.91;5040525;28;20844;-73
2022/11/29 00:26:31;;;;;;;31.33;22.57;;;;;;;0.94;100.00;96075.50;5012413;28;20434;-74
2022/11/29 00:28:58;;;;;;;28.33;18.33;;;;;;;0.94;100.00;96059.91;5012713;28;20460;-73
2022/11/29 00:31:30;;;;;;;29.13;20.97;;;;;;;1.14;100.00;96085.78;5029219;28;20432;-74
2022/11/29 00:33:59;;;;;;;29.47;20.10;;;;;;;0.89;100.00;96052.09;5052568;28;20451;-74
2022/11/29 00:36:26;;;;;;;32.73;19.70;;;;;;;0.74;100.00;96039.22;5053514;28;20828;-74
2022/11/29 00:38:53;;;;;;;31.00;21.07;;;;;;;0.97;100.00;96095.00;5052597;28;20457;-74
2022/11/29 00:41:20;;;;;;;28.20;19.90;;;;;;;0.34;100.00;95996.78;5052314;28;20441;-74
2022/11/29 00:43:47;;;;;;;32.97;24.47;;;;;;;1.01;100.00;96091.59;5052221;28;20439;-74
2022/11/29 00:46:14;;;;;;;33.37;21.57;;;;;;;0.76;100.00;96047.50;5003598;28;20438;-74
2022/11/29 00:48:40;;;;;;;30.27;20.33;;;;;;;0.90;100.00;96071.88;5032454;28;20829;-74
2022/11/29 00:51:07;;;;;;;29.03;19.17;;;;;;;0.99;100.00;96083.28;5017728;28;20554;-74
2022/11/29 00:53:35;;;;;;;31.80;21.53;;;;;;;0.91;100.00;96065.63;5041229;28;20422;-74
2022/11/29 00:56:02;;;;;;;27.43;18.97;;;;;;;0.97;100.00;96074.97;5032025;28;20472;-74
2022/11/29 00:58:29;;;;;;;31.30;21.37;;;;;;;1.04;100.00;96083.22;5015686;28;20533;-74
2022/11/29 01:00:56;;;;;;;27.30;18.27;;;;;;;0.92;100.00;96069.78;5032018;28;20446;-74
2022/11/29 01:03:23;;;;;;;27.70;19.57;;;;;;;1.01;100.00;96075.97;5033551;28;20873;-74
2022/11/29 01:05:50;;;;;;;31.37;20.03;;;;;;;0.88;100.00;96069.56;5032085;28;20444;-74
2022/11/29 01:08:17;;;;;;;33.57;22.33;;;;;;;0.98;100.00;96081.72;5031843;28;20481;-74
2022/11/29 01:10:44;;;;;;;24.57;19.50;;;;;;;0.92;100.00;96069.00;5031663;28;20864;-74
2022/11/29 01:13:11;;;;;;;30.57;20.67;;;;;;;0.85;100.00;96049.28;5032959;28;20943;-74
2022/11/29 01:15:37;;;;;;;29.90;19.20;;;;;;;1.08;100.00;96076.47;5031563;28;20469;-74
2022/11/29 01:18:04;;;;;;;31.47;22.10;;;;;;;0.89;100.00;96046.91;5031658;28;20526;-74
2022/11/29 01:20:31;;;;;;;29.13;21.00;;;;;;;0.89;100.00;96044.31;5042628;28;20458;-72
2022/11/29 01:22:57;;;;;;;26.80;19.57;;;;;;;1.13;100.00;96079.00;5071449;28;20473;-72
2022/11/29 01:25:24;;;;;;;28.60;21.17;;;;;;;0.94;100.00;96048.72;5025745;28;20449;-74
2022/11/29 01:27:51;;;;;;;29.43;20.50;;;;;;;0.89;100.00;96052.88;5031588;28;20477;-74
2022/11/29 01:30:18;;;;;;;28.57;20.90;;;;;;;0.84;100.00;96037.31;5031540;28;20455;-74
2022/11/29 01:32:44;;;;;;;30.33;21.97;;;;;;;0.91;100.00;96063.03;5014999;28;20529;-74
2022/11/29 01:35:11;;;;;;;28.00;19.57;;;;;;;1.03;100.00;96079.06;5031341;28;20433;-74
2022/11/29 01:37:38;;;;;;;25.83;17.77;;;;;;;0.86;100.00;96061.25;5031497;28;20497;-74
2022/11/29 01:40:05;;;;;;;36.30;22.87;;;;;;;0.99;100.00;96075.47;5032731;28;20446;-74
2022/11/29 01:42:32;;;;;;;29.80;19.30;;;;;;;1.02;100.00;96076.75;5030755;28;20472;-74
2022/11/29 01:45:18;;;;;;;28.30;20.13;;;;;;;1.01;100.00;96075.97;5031051;28;20446;-74
2022/11/29 01:47:48;;;;;;;26.67;17.97;;;;;;;1.07;100.00;96076.69;5026536;28;20538;-74
2022/11/29 01:50:15;;;;;;;33.27;19.77;;;;;;;0.89;100.00;96055.50;5035758;28;20911;-74
2022/11/29 01:52:42;;;;;;;31.30;21.63;;;;;;;0.75;100.00;96040.75;5029484;28;20453;-74
2022/11/29 01:55:09;;;;;;;32.47;21.40;;;;;;;0.98;100.00;96071.31;5031166;28;20430;-74
2022/11/29 01:57:39;;;;;;;29.80;21.07;;;;;;;0.74;100.00;96036.59;5030775;28;20989;-74
2022/11/29 02:00:10;;;;;;;28.07;21.57;;;;;;;0.99;100.00;96066.88;5030828;28;20545;-74
2022/11/29 02:02:49;;;;;;;29.43;19.37;;;;;;;0.83;100.00;96038.38;5032716;28;20437;-74
2022/11/29 02:05:18;;;;;;;27.87;19.67;;;;;;;0.78;100.00;96027.19;5030739;28;20449;-74
2022/11/29 02:07:49;;;;;;;32.47;21.43;;;;;;;1.05;100.00;96056.16;5014634;28;20446;-74
2022/11/29 02:10:17;;;;;;;35.23;21.53;;;;;;;1.06;100.00;96064.75;5014203;28;20564;-74
2022/11/29 02:12:49;;;;;;;31.30;19.43;;;;;;;1.11;100.00;96069.94;5030646;28;20493;-73
2022/11/29 02:15:52;;;;;;;31.07;20.97;;;;;;;0.96;100.00;96044.00;5030591;28;20910;-73
2022/11/29 02:18:37;;;;;;;31.37;19.97;;;;;;;1.06;100.00;96062.91;5046762;28;20452;-74
2022/11/29 02:21:19;;;;;;;27.80;20.07;;;;;;;1.10;100.00;96057.97;5050400;28;20528;-74
2022/11/29 02:23:52;;;;;;;31.93;21.47;;;;;;;1.01;100.00;96068.16;5050515;28;20413;-74
2022/11/29 02:26:56;;;;;;;28.70;19.27;;;;;;;0.96;100.00;96065.59;5051899;28;20432;-73
2022/11/29 02:29:52;;;;;;;30.93;20.17;;;;;;;0.98;100.00;96062.72;5037695;28;20450;-74
2022/11/29 02:32:40;;;;;;;32.63;20.57;;;;;;;0.95;100.00;96064.06;5020398;28;20439;-74
2022/11/29 02:35:52;;;;;;;32.30;21.73;;;;;;;1.04;100.00;96056.44;5030183;28;20856;-74
2022/11/29 02:38:41;;;;;;;28.40;19.87;;;;;;;1.06;100.00;96064.75;5051247;28;20444;-74
2022/11/29 02:41:17;;;;;;;41.83;21.73;;;;;;;1.03;100.00;96065.28;5035408;28;20528;-74
2022/11/29 02:44:11;;;;;;;31.57;21.43;;;;;;;0.94;100.00;96059.91;5030255;28;20433;-74
2022/11/29 02:47:05;;;;;;;35.00;20.17;;;;;;;0.99;100.00;96061.69;5018823;28;20430;-74
2022/11/29 02:49:57;;;;;;;32.10;20.70;;;;;;;0.97;100.00;96069.75;5043415;28;20936;-74
2022/11/29 03:22:03;;;;;;;30.13;21.03;;;;;;;1.15;100.00;96087.31;5029431;28;20576;-74
2022/11/29 03:24:51;;;;;;;25.57;20.80;;;;;;;1.13;100.00;96091.25;5017848;28;20442;-74
2022/11/29 03:27:39;;;;;;;29.77;20.63;;;;;;;0.89;100.00;96068.50;5030171;28;20431;-74
2022/11/29 03:30:08;;;;;;;30.10;20.90;;;;;;;0.89;100.00;96071.09;5033587;28;20453;-74
2022/11/29 03:32:49;;;;;;;33.10;22.67;;;;;;;1.12;100.00;96102.72;5031882;28;20427;-74
2022/11/29 03:35:37;;;;;;;26.63;19.70;;;;;;;1.11;100.00;96096.72;5013153;28;20946;-74
2022/11/29 03:38:45;;;;;;;31.60;21.43;;;;;;;1.19;100.00;96103.94;5032605;28;20480;-74
2022/11/29 03:41:28;;;;;;;30.33;19.60;;;;;;;0.83;100.00;96066.22;5018282;28;21004;-74
2022/11/29 03:44:16;;;;;;;29.93;18.87;;;;;;;1.06;100.00;96107.16;5030623;28;20434;-74
2022/11/29 03:47:08;;;;;;;37.87;24.63;;;;;;;0.94;100.00;96090.34;5012952;28;20443;-74
2022/11/29 03:49:42;;;;;;;29.40;20.37;;;;;;;0.89;100.00;96078.91;5020728;28;20544;-74
2022/11/29 03:52:20;;;;;;;30.20;21.30;;;;;;;0.77;100.00;96064.69;5017344;28;20568;-74
2022/11/29 03:55:22;;;;;;;27.93;20.30;;;;;;;1.02;100.00;96100.19;5050249;28;20784;-74
2022/11/29 03:58:16;;;;;;;34.37;20.70;;;;;;;0.98;100.00;96107.75;5019223;28;20478;-74
2022/11/29 04:01:01;;;;;;;32.07;20.17;;;;;;;1.05;100.00;96104.84;5013957;28;20463;-74
2022/11/29 04:03:56;;;;;;;38.20;22.33;;;;;;;0.84;100.00;96091.19;5039969;28;20454;-75
2022/11/29 04:06:43;;;;;;;29.47;20.97;;;;;;;0.82;100.00;96091.47;5015416;28;20422;-74
2022/11/29 04:09:44;;;;;;;31.03;21.30;;;;;;;0.99;100.00;96113.72;5036336;28;20458;-74
2022/11/29 04:12:32;;;;;;;27.23;20.30;;;;;;;0.99;100.00;96106.69;5052973;28;20520;-74
2022/11/29 04:15:14;;;;;;;34.00;21.40;;;;;;;0.94;100.00;96111.16;5035620;28;20475;-74
2022/11/29 04:17:53;;;;;;;32.93;21.93;;;;;;;0.93;100.00;96107.75;5034272;28;20449;-74
2022/11/29 04:20:55;;;;;;;31.70;21.67;;;;;;;0.96;100.00;96111.69;5032671;28;20978;-74
2022/11/29 04:23:44;;;;;;;31.63;21.50;;;;;;;0.93;100.00;96104.38;5020164;28;20517;-74
2022/11/29 04:26:32;;;;;;;30.20;20.57;;;;;;;0.84;100.00;96080.78;5046042;28;20433;-74
2022/11/29 04:29:19;;;;;;;35.17;22.27;;;;;;;1.03;100.00;96104.31;5052431;28;20473;-74
2022/11/29 04:31:48;;;;;;;34.40;19.77;;;;;;;0.93;100.00;96109.59;5033596;28;20426;-74
2022/11/29 04:34:40;;;;;;;29.87;19.40;;;;;;;0.94;100.00;96111.16;5016017;28;20436;-74
2022/11/29 04:37:16;;;;;;;29.80;21.13;;;;;;;1.03;100.00;96106.94;5032503;28;20826;-74
2022/11/29 04:39:56;;;;;;;32.63;20.30;;;;;;;0.71;100.00;96063.94;5016067;28;20458;-73
2022/11/29 04:42:44;;;;;;;29.40;20.47;;;;;;;0.97;100.00;96108.81;5045510;28;20925;-74
2022/11/29 04:45:29;;;;;;;26.60;19.17;;;;;;;0.97;100.00;96108.81;5052320;28;20413;-74
2022/11/29 04:48:08;;;;;;;33.80;20.70;;;;;;;0.97;100.00;96116.59;5052049;28;20477;-74
2022/11/29 04:50:46;;;;;;;26.93;19.03;;;;;;;1.02;100.00;96108.75;5040033;28;20456;-74
2022/11/29 04:54:10;;;;;;;30.23;21.50;;;;;;;1.07;100.00;96121.75;5032233;28;20444;-74
2022/11/29 04:56:43;;;;;;;31.00;20.83;;;;;;;0.88;100.00;96092.97;4980718;28;20480;-74
2022/11/29 04:59:25;;;;;;;32.40;19.93;;;;;;;1.04;100.00;96124.88;4973223;28;20464;-74
2022/11/29 05:02:14;;;;;;;30.73;18.87;;;;;;;1.09;100.00;96113.69;5015137;28;20915;-74
2022/11/29 05:05:02;;;;;;;28.30;20.03;;;;;;;1.10;100.00;96113.41;5031843;28;20641;-74
2022/11/29 05:07:45;;;;;;;28.50;18.40;;;;;;;1.14;100.00;96121.44;5051656;28;20428;-74
2022/11/29 05:10:24;;;;;;;31.77;19.87;;;;;;;1.11;100.00;96127.97;5020258;28;20465;-74
2022/11/29 05:12:59;;;;;;;28.67;20.07;;;;;;;1.05;100.00;96131.63;5031750;28;20442;-74
2022/11/29 05:15:38;;;;;;;30.60;19.43;;;;;;;1.03;100.00;96135.56;5033268;28;20443;-74
2022/11/29 05:18:44;;;;;;;31.47;21.43;;;;;;;0.81;100.00;96107.34;5050692;28;20946;-74
2022/11/29 05:21:20;;;;;;;29.77;20.43;;;;;;;0.89;100.00;96114.56;5051686;28;20444;-74
2022/11/29 05:24:26;;;;;;;34.90;21.10;;;;;;;1.04;100.00;96134.50;5019981;28;20430;-74
2022/11/29 05:27:20;;;;;;;29.37;18.20;;;;;;;0.91;100.00;96109.09;5029334;28;20463;-74
2022/11/29 05:29:57;;;;;;;31.47;19.97;;;;;;;1.04;100.00;96134.50;5051131;28;21077;-74
2022/11/29 05:32:37;;;;;;;31.47;21.40;;;;;;;0.85;100.00;96106.53;5039486;28;20421;-74
2022/11/29 05:35:39;;;;;;;32.87;22.60;;;;;;;1.10;100.00;96144.63;5033317;28;20956;-74
2022/11/29 05:38:32;;;;;;;30.63;20.50;;;;;;;0.84;100.00;96117.97;5015004;28;20564;-74
2022/11/29 05:41:11;;;;;;;29.93;20.20;;;;;;;0.92;100.00;96108.81;5031214;28;20442;-74
2022/11/29 05:44:00;;;;;;;31.00;21.57;;;;;;;1.05;100.00;96143.88;5032532;28;20442;-74
2022/11/29 05:46:52;;;;;;;30.97;19.90;;;;;;;1.10;100.00;96134.22;5031348;28;20517;-74
2022/11/29 05:49:50;;;;;;;29.20;18.73;;;;;;;1.07;100.00;96142.59;5026486;28;20468;-74
2022/11/29 05:52:50;;;;;;;24.27;17.40;;;;;;;1.18;100.00;96151.09;5021057;28;20438;-74
2022/11/29 05:55:40;;;;;;;29.37;20.73;;;;;;;0.74;100.00;96065.22;5024683;28;20442;-74
2022/11/29 05:58:30;;;;;;;27.63;19.07;;;;;;;0.79;100.00;96083.38;5047986;28;20839;-74
2022/11/29 06:01:06;;;;;;;25.13;18.87;;;;;;;1.16;100.00;96156.56;5020991;28;20440;-74
2022/11/29 06:03:38;;;;;;;25.43;19.40;;;;;;;1.21;100.00;96145.34;5039278;28;20507;-74
2022/11/29 06:06:15;;;;;;;26.70;18.17;;;;;;;1.21;100.00;96147.19;5048467;28;20545;-74
2022/11/29 06:08:53;;;;;;;27.23;20.80;;;;;;;0.89;100.00;96102.31;5030977;28;20437;-74
2022/11/29 06:11:29;;;;;;;24.37;19.20;;;;;;;1.02;100.00;96121.00;5031008;28;20427;-74
2022/11/29 06:14:13;;;;;;;25.37;17.40;;;;;;;1.18;100.00;96157.06;5030699;28;20418;-74
2022/11/29 06:17:05;;;;;;;26.13;17.60;;;;;;;1.19;100.00;96153.41;5031919;28;20462;-74
2022/11/29 06:19:51;;;;;;;32.70;18.53;;;;;;;1.24;100.00;96159.66;5012128;28;20810;-74
2022/11/29 06:22:40;;;;;;;30.70;21.23;;;;;;;1.31;100.00;96158.28;5030523;28;20445;-74
2022/11/29 06:25:27;;;;;;;27.53;17.73;;;;;;;1.24;100.00;96141.44;5030782;28;20497;-74
2022/11/29 06:28:07;;;;;;;29.03;18.97;;;;;;;1.03;100.00;96141.53;5014170;28;20437;-74
2022/11/29 06:31:10;;;;;;;25.20;18.37;;;;;;;1.27;100.00;96164.31;5017919;28;20469;-74
2022/11/29 06:33:49;;;;;;;28.60;18.20;;;;;;;0.76;100.00;96094.34;5030053;28;20831;-74
2022/11/29 06:36:32;;;;;;;29.53;21.50;;;;;;;0.97;100.00;96139.25;5051199;28;20536;-73
2022/11/29 06:38:58;;;;;;;32.67;21.57;;;;;;;0.96;100.00;96138.47;5047835;28;20485;-73
2022/11/29 06:41:26;;;;;;;27.40;19.80;;;;;;;0.85;100.00;96116.16;5047667;28;20442;-74
2022/11/29 06:43:53;;;;;;;25.27;18.03;;;;;;;1.16;100.00;96168.81;5031798;28;20434;-76
2022/11/29 06:46:27;;;;;;;29.70;18.23;;;;;;;1.24;100.00;96164.88;5031794;28;20437;-75
2022/11/29 06:49:26;;;;;;;25.60;18.93;;;;;;;1.27;100.00;96166.91;5030540;28;20449;-75
2022/11/29 06:51:59;;;;;;;30.40;18.57;;;;;;;1.28;100.00;96169.25;5010402;28;20777;-76
2022/11/29 06:54:52;;;;;;;26.10;19.27;;;;;;;1.11;100.00;96146.19;5024668;28;20446;-76
2022/11/29 06:57:46;;;;;;;32.63;21.60;;;;;;;1.35;100.00;96180.16;5014273;28;20466;-75
2022/11/29 07:00:32;;;;;;;26.93;18.57;;;;;;;1.30;100.00;96168.97;5002940;28;21011;-76
2022/11/29 07:03:21;;;;;;;28.90;19.37;;;;;;;1.30;100.00;96174.97;5049364;28;20468;-75
2022/11/29 07:05:48;;;;;;;26.67;18.63;;;;;;;1.07;100.00;96163.41;5048382;28;20465;-75
2022/11/29 07:08:17;;;;;;;25.17;20.03;;;;;;;0.99;100.00;96160.59;5013547;28;20434;-75
2022/11/29 07:10:48;;;;;;;32.47;19.13;;;;;;;1.22;100.00;96190.41;5029615;28;20886;-75
2022/11/29 07:13:19;;;;;;;26.10;17.30;;;;;;;1.03;100.00;96153.78;5030958;28;20574;-75
2022/11/29 07:15:45;;;;;;;25.63;18.43;;;;;;;1.35;100.00;96195.78;5029532;28;20541;-75
2022/11/29 07:18:12;;;;;;;27.80;20.80;;;;;;;1.37;100.00;96205.94;5039647;28;20475;-75
2022/11/29 07:21:06;;;;;;;35.47;19.50;;;;;;;1.38;100.00;96199.66;5032580;28;20469;-75
2022/11/29 07:23:55;;;;;;;24.73;19.23;;;;;;;1.36;100.00;96199.94;5036125;28;20430;-75
2022/11/29 07:26:32;;;;;;;29.97;21.30;;;;;;;1.08;100.00;96175.38;5016046;28;20850;-75
2022/11/29 07:29:09;;;;;;;30.53;19.20;;;;;;;1.27;100.00;96206.75;5045258;28;20465;-75
2022/11/29 07:31:54;;;;;;;24.73;19.70;;;;;;;1.34;100.00;96209.06;5036428;28;20803;-75
2022/11/29 07:34:24;;;;;;;26.30;17.80;;;;;;;1.32;100.00;96206.72;5012935;28;20426;-75
2022/11/29 07:37:15;;;;;;;25.40;18.43;;;;;;;1.09;100.00;96187.34;5043703;28;20468;-75
2022/11/29 07:39:41;;;;;;;31.50;19.40;;;;;;;1.36;100.00;96206.97;5029215;28;20466;-75
2022/11/29 07:42:36;;;;;;;31.10;21.73;;;;;;;1.37;100.00;96211.91;5042164;28;20436;-75
2022/11/29 07:45:27;;;;;;;29.50;20.37;;;;;;;1.21;100.00;96183.63;5012998;28;20442;-75
2022/11/29 07:47:54;;;;;;;25.37;18.20;;;;;;;1.09;100.00;96174.31;5029051;28;20426;-74
2022/11/29 07:50:21;;;;;;;29.90;18.43;;;;;;;1.36;100.00;96212.97;5030569;28;20880;-75
2022/11/29 07:52:48;;;;;;;27.43;20.63;;;;;;;1.44;100.00;96212.38;5028904;28;20438;-75
2022/11/29 07:55:20;;;;;;;30.50;19.97;;;;;;;1.34;100.00;96202.03;5029191;28;20458;-75
2022/11/29 07:57:47;;;;;;;31.33;21.53;;;;;;;1.53;100.00;96223.00;5044651;28;20465;-74
2022/11/29 08:00:17;;;;;;;31.73;19.30;;;;;;;1.46;100.00;96199.84;5049047;28;20536;-75
2022/11/29 08:02:44;;;;;;;31.03;20.10;;;;;;;1.23;100.00;96184.13;5034075;28;20438;-74
2022/11/29 08:05:11;;;;;;;30.03;21.77;;;;;;;1.47;100.00;96217.06;5037698;28;20788;-75
2022/11/29 08:07:39;;;;;;;31.00;21.70;;;;;;;1.49;100.00;96224.59;5048953;28;20540;-74
2022/11/29 08:10:12;;;;;;;25.50;19.27;;;;;;;1.48;100.00;96234.25;5040361;28;20854;-74
2022/11/29 08:12:46;;;;;;;26.17;20.00;;;;;;;1.48;100.00;96223.84;5029414;28;20491;-74
2022/11/29 08:15:12;;;;;;;26.67;19.27;;;;;;;1.45;100.00;96213.16;5012525;28;20478;-75
2022/11/29 08:17:39;;;;;;;26.17;18.67;;;;;;;1.50;100.00;96220.94;5029208;28;20847;-75
2022/11/29 08:20:07;;;;;;;29.30;19.20;;;;;;;1.53;100.00;96209.22;5039467;28;21017;-75
2022/11/29 08:22:34;;;;;;;24.83;18.40;;;;;;;1.04;100.00;96176.94;5027282;28;20636;-75
2022/11/29 08:25:01;;;;;;;24.87;18.83;;;;;;;1.54;100.00;96242.81;5030113;28;20432;-75
2022/11/29 08:27:28;;;;;;;27.13;18.27;;;;;;;1.42;100.00;96221.50;5009035;28;20450;-75
2022/11/29 08:29:54;;;;;;;26.63;19.87;;;;;;;1.48;100.00;96225.66;5025534;28;20449;-75
2022/11/29 08:32:21;;;;;;;26.93;19.17;;;;;;;1.31;100.00;96207.75;5030335;28;20426;-75
2022/11/29 08:34:47;;;;;;;26.63;19.80;;;;;;;1.39;100.00;96224.66;5012324;28;20445;-75
2022/11/29 08:37:14;;;;;;;26.80;17.60;;;;;;;1.51;100.00;96224.34;5028605;28;20458;-75
2022/11/29 08:39:41;;;;;;;31.73;18.77;;;;;;;1.59;100.00;96234.16;5029999;28;20488;-75
2022/11/29 08:42:07;;;;;;;26.73;18.20;;;;;;;1.56;100.00;96229.50;5031263;28;20453;-75
2022/11/29 08:44:34;;;;;;;29.63;19.80;;;;;;;1.61;100.00;96225.06;5036204;28;20442;-75
2022/11/29 08:50:01;;;;;;;27.77;18.60;;;;;;;1.78;100.00;96259.31;5028833;28;20465;-75
2022/11/29 08:55:21;;;;;;;28.73;19.37;;;;;;;1.92;100.00;96258.72;5040661;28;20470;-75
2022/11/29 08:57:49;;;;;;;26.10;18.60;;;;;;;1.83;100.00;96252.50;5019025;28;21054;-75
2022/11/29 09:00:16;;;;;;;23.80;16.63;;;;;;;1.94;100.00;96265.19;5032107;28;20989;-75
2022/11/29 09:02:43;;;;;;;26.43;19.47;;;;;;;1.60;100.00;96233.88;5031927;28;20448;-74
2022/11/29 09:05:10;;;;;;;30.40;19.60;;;;;;;1.76;100.00;96253.59;5015583;28;20438;-75
2022/11/29 09:07:37;;;;;;;24.57;16.47;;;;;;;1.81;100.00;96258.00;5031779;28;20443;-75
2022/11/29 09:10:07;;;;;;;23.27;18.10;;;;;;;1.82;100.00;96245.75;5031672;28;20466;-75
2022/11/29 09:12:35;;;;;;;22.87;17.77;;;;;;;1.95;100.00;96277.19;5031715;28;20882;-75
2022/11/29 09:15:04;;;;;;;23.10;18.30;;;;;;;1.87;100.00;96279.56;5041658;28;20465;-75
2022/11/29 09:17:31;;;;;;;23.80;18.13;;;;;;;1.84;100.00;96274.91;5053010;28;20837;-75
2022/11/29 09:19:58;;;;;;;26.23;18.83;;;;;;;1.69;100.00;96250.50;5042801;28;20967;-75
2022/11/29 09:22:24;;;;;;;25.20;18.93;;;;;;;1.81;100.00;96246.78;5032876;28;20458;-75
2022/11/29 09:24:51;;;;;;;20.37;16.50;;;;;;;1.72;100.00;96254.41;5032879;28;20815;-75
2022/11/29 09:27:18;;;;;;;22.57;16.23;;;;;;;1.78;100.00;96248.91;5048714;28;20452;-75
2022/11/29 09:29:44;;;;;;;24.60;18.10;;;;;;;1.91;100.00;96262.38;5052741;28;20449;-75
2022/11/29 09:32:11;;;;;;;24.10;18.83;;;;;;;1.62;100.00;96237.03;5034043;28;20934;-75
2022/11/29 09:34:38;;;;;;;25.57;17.87;;;;;;;1.90;100.00;96279.84;5014978;28;20434;-75
2022/11/29 09:37:04;;;;;;;27.07;19.30;;;;;;;1.61;100.00;96227.66;5031234;28;20435;-75
2022/11/29 09:39:31;;;;;;;23.47;17.07;;;;;;;1.96;100.00;96270.91;5031098;28;20468;-75
2022/11/29 09:42:26;;;;;;;22.47;18.30;;;;;;;2.03;100.00;96288.88;5032531;28;20745;-75
2022/11/29 09:44:58;;;;;;;26.70;17.93;;;;;;;2.03;100.00;96281.81;5047349;28;20429;-75
2022/11/29 09:48:01;;;;;;;26.90;18.63;;;;;;;2.07;100.00;96282.81;5025776;28;20442;-75
2022/11/29 09:50:47;;;;;;;21.23;15.97;;;;;;;1.92;100.00;96259.47;5013664;28;20462;-75
2022/11/29 09:53:33;;;;;;;29.13;17.67;;;;;;;2.17;100.00;96273.38;5031000;28;20949;-75
2022/11/29 09:56:06;;;;;;;23.93;17.03;;;;;;;2.14;100.00;96292.97;5027316;28;20440;-75
2022/11/29 09:58:46;;;;;;;17.43;15.13;;;;;;;2.20;100.00;96307.50;5027571;28;20466;-75
2022/11/29 10:01:20;;;;;;;21.30;16.63;;;;;;;1.95;100.00;96258.94;5031166;28;20434;-75
2022/11/29 10:03:51;;;;;;;24.63;16.73;;;;;;;2.26;100.00;96295.97;5032013;28;20418;-75
2022/11/29 10:06:35;;;;;;;26.97;18.10;;;;;;;1.86;100.00;96244.13;5027737;28;20905;-75
2022/11/29 10:09:15;;;;;;;17.87;13.90;;;;;;;2.11;100.00;96264.81;5030625;28;20454;-75
2022/11/29 10:12:20;;;;;;;23.80;17.30;;;;;;;2.31;100.00;96297.78;5014356;28;20431;-75
2022/11/29 10:15:12;;;;;;;21.17;15.50;;;;;;;2.23;100.00;96301.75;5034101;28;20434;-75
2022/11/29 10:18:01;;;;;;;20.43;14.87;;;;;;;2.25;100.00;96299.63;5050343;28;20496;-75
2022/11/29 10:20:33;;;;;;;18.93;15.33;;;;;;;2.28;100.00;96300.94;5037576;28;21002;-75
2022/11/29 10:23:42;;;;;;;20.17;15.00;;;;;;;2.31;100.00;96292.56;5014935;28;20757;-75
2022/11/29 10:26:11;;;;;;;28.37;16.83;;;;;;;2.26;100.00;96292.59;5030423;28;20426;-75
2022/11/29 10:28:43;;;;;;;24.20;16.87;;;;;;;2.35;100.00;96296.16;5046715;28;20424;-75
2022/11/29 10:31:21;;;;;;;21.93;14.80;;;;;;;2.28;100.00;96291.28;5042074;28;20429;-75
2022/11/29 10:33:49;;;;;;;19.50;15.23;;;;;;;2.25;100.00;96298.84;5030207;28;20430;-74
2022/11/29 10:36:32;;;;;;;19.90;16.30;;;;;;;1.56;100.00;96183.38;5030501;28;20433;-74
2022/11/29 10:39:09;;;;;;;24.93;17.20;;;;;;;2.12;100.00;96283.81;5017256;28;20592;-74
2022/11/29 10:41:40;;;;;;;19.27;15.87;;;;;;;2.15;100.00;96265.84;5043489;28;20441;-74
2022/11/29 10:44:12;;;;;;;21.33;15.43;;;;;;;2.11;100.00;96261.41;5030056;28;20442;-75
2022/11/29 10:46:39;;;;;;;18.60;14.57;;;;;;;2.40;100.00;96292.72;5046720;28;20452;-75
2022/11/29 10:49:12;;;;;;;20.47;14.70;;;;;;;2.48;100.00;96287.69;5039743;28;20493;-75
2022/11/29 10:51:39;;;;;;;19.27;15.17;;;;;;;2.32;100.00;96266.19;5018336;28;20456;-74
2022/11/29 10:54:33;;;;;;;14.73;13.20;;;;;;;2.45;100.00;96297.91;5051162;28;20464;-74
2022/11/29 10:57:00;;;;;;;16.80;15.00;;;;;;;2.50;100.00;96298.63;5018317;28;20505;-74
2022/11/29 10:59:29;;;;;;;19.90;16.30;;;;;;;2.21;100.00;96264.72;5029531;28;20852;-74
2022/11/29 11:01:56;;;;;;;17.97;14.17;;;;;;;2.30;100.00;96270.91;5038351;28;20536;-74
2022/11/29 11:04:30;;;;;;;17.90;13.13;;;;;;;2.47;100.00;96290.59;5033961;28;20446;-74
2022/11/29 11:07:00;;;;;;;21.13;15.57;;;;;;;2.53;100.00;96300.69;5029948;28;20448;-74
2022/11/29 11:09:29;;;;;;;20.70;13.73;;;;;;;2.66;100.00;96310.50;5030701;28;20822;-74
2022/11/29 11:11:59;;;;;;;16.00;12.73;;;;;;;2.25;100.00;96276.16;5030888;28;20436;-74
2022/11/29 11:14:33;;;;;;;20.77;15.27;;;;;;;2.60;100.00;96306.38;5047603;28;20452;-75
2022/11/29 11:17:21;;;;;;;19.53;15.03;;;;;;;2.56;100.00;96300.16;5049163;28;20428;-75
2022/11/29 11:19:55;;;;;;;20.37;15.13;;;;;;;2.59;100.00;96301.44;5024281;28;20553;-74
2022/11/29 11:22:23;;;;;;;25.13;16.70;;;;;;;2.57;100.00;96304.34;5012956;28;20438;-75
2022/11/29 11:25:06;;;;;;;23.27;15.37;;;;;;;2.53;100.00;96305.91;5030847;28;20426;-74
2022/11/29 11:27:38;;;;;;;19.23;13.80;;;;;;;2.61;100.00;96304.56;5044122;28;20478;-75
2022/11/29 11:30:17;;;;;;;19.70;15.37;;;;;;;2.51;100.00;96294.19;5030668;28;20537;-74
2022/11/29 11:33:19;;;;;;;20.77;14.73;;;;;;;2.67;100.00;96316.47;5009670;28;20435;-75
2022/11/29 11:36:05;;;;;;;19.60;14.70;;;;;;;2.67;100.00;96306.84;5000813;28;20437;-74
2022/11/29 11:38:33;;;;;;;19.70;14.83;;;;;;;2.56;100.00;96294.94;5029105;28;20536;-74
2022/11/29 11:41:06;;;;;;;19.93;14.93;;;;;;;2.65;100.00;96311.53;5012774;28;20441;-75
2022/11/29 11:43:33;;;;;;;17.10;14.90;;;;;;;2.58;100.00;96316.31;5012638;28;21001;-74
2022/11/29 11:46:00;;;;;;;23.90;17.50;;;;;;;2.67;100.00;96296.41;5030541;28;20544;-75
2022/11/29 11:48:27;;;;;;;21.13;13.70;;;;;;;2.46;100.00;96266.34;5012628;28;20430;-75
2022/11/29 11:50:57;;;;;;;19.77;15.17;;;;;;;2.45;100.00;96277.03;5042489;28;20460;-75
2022/11/29 11:53:35;;;;;;;19.97;14.63;;;;;;;2.47;100.00;96280.16;5043364;28;20533;-75
2022/11/29 11:56:01;;;;;;;23.13;15.27;;;;;;;2.77;100.00;96311.19;5029353;28;20445;-75
2022/11/29 11:58:55;;;;;;;20.63;15.70;;;;;;;2.78;100.00;96323.16;5036818;28;20453;-75
2022/11/29 12:01:27;;;;;;;19.57;15.93;;;;;;;2.65;100.00;96295.88;5050612;28;20433;-75
2022/11/29 12:04:12;;;;;;;16.40;14.60;;;;;;;2.79;100.00;96310.91;5037219;28;20414;-75
2022/11/29 12:06:50;;;;;;;20.40;15.83;;;;;;;2.71;100.00;96320.13;5018836;28;20473;-75
2022/11/29 12:09:26;;;;;;;18.90;13.83;;;;;;;2.79;100.00;96327.34;5029297;28;20477;-75
2022/11/29 12:12:00;;;;;;;14.73;13.10;;;;;;;2.78;100.00;96315.34;5018460;28;20427;-75
2022/11/29 12:14:34;;;;;;;17.50;14.80;;;;;;;2.76;100.00;96319.28;5046656;28;20531;-75
2022/11/29 12:17:08;;;;;;;20.10;15.00;;;;;;;2.72;100.00;96313.84;5050450;28;20516;-75
2022/11/29 12:19:48;;;;;;;20.10;14.23;;;;;;;2.50;100.00;96288.19;5024818;28;20483;-75
2022/11/29 12:22:21;;;;;;;20.80;14.87;;;;;;;2.50;100.00;96288.19;5033098;28;20468;-75
2022/11/29 12:25:04;;;;;;;17.83;14.50;;;;;;;2.55;100.00;96297.84;5029346;28;20461;-75
2022/11/29 12:27:31;;;;;;;17.27;13.20;;;;;;;2.55;100.00;96308.28;5030580;28;20488;-74
2022/11/29 12:29:57;;;;;;;17.20;14.27;;;;;;;2.62;100.00;96295.66;5030217;28;20458;-75
2022/11/29 12:32:34;;;;;;;22.23;13.70;;;;;;;2.85;100.00;96322.84;5033546;28;20426;-74
2022/11/29 12:35:31;;;;;;;16.40;13.50;;;;;;;2.73;100.00;96296.34;5048465;28;20421;-75
2022/11/29 12:38:04;;;;;;;15.60;12.80;;;;;;;2.57;100.00;96273.00;5052468;28;20441;-75
2022/11/29 12:40:44;;;;;;;20.00;14.10;;;;;;;2.88;100.00;96310.03;5033057;28;20450;-75